CheckWX is a tool to help pilots better visualize weather data.  It is not intended as a substitute for an official pre-flight weather briefing.

13:11:27 UTC

KRIV TAF
March ARB Airport
Riverside, California, USA
TAF KRIV 271203Z 2712/2818 VRB05KT 9999 SKC QNH2991INS BECMG 2718/2719 31010KT 9999 SKC 510009 QNH2985INS TEMPO 2721/2802 31012G20KT BECMG 2802/2803 31007KT 9999 FEW250 QNH2990INS TX36/2722Z TN14/2714Z

May-27@
12:00 UTC

May-27 @ 12:00 UTC

May-27@
18:00 UTC

May-27 @ 18:00 UTC

TAF KRIV 271203Z 2712/2818 VRB05KT 9999 SKC QNH2991INS

Expired

Wind
  • Variable at 5 KTS
Cloud Levels
  • Clear skies

May-27@
18:00 UTC

May-27 @ 18:00 UTC

May-28@
02:00 UTC

May-28 @ 02:00 UTC

BECMG 2718/2719 31010KT 9999 SKC 510009 QNH2985INS

Expired

Wind
  • 310° at 10 KTS
Cloud Levels
  • Clear skies

May-27@
21:00 UTC

May-27 @ 21:00 UTC

May-28@
02:00 UTC

May-28 @ 02:00 UTC

TEMPO 2721/2802 31012G20KT

Expired

Wind
  • 310° at 12 KTS
  • {Gusting to 20 KTS
Cloud Levels

May-28@
02:00 UTC

May-28 @ 02:00 UTC

May-28@
18:00 UTC

May-28 @ 18:00 UTC

BECMG 2802/2803 31007KT 9999 FEW250 QNH2990INS TX36/2722Z TN14/2714Z

Becoming

Becoming Conditions expected by Thu, May 28, 2020 @ 03:00 UTC

Wind
  • 310° at 7 KTS
Cloud Levels
  • Few at 25,000' AGL